sensor_id;sensor_type;location;lat;lon;timestamp;P1;durP1;ratioP1;P2;durP2;ratioP2
25045;SDS011;13044;49.304;12.840;2022-11-03T00:02:01;13.60;;;7.20;;
25045;SDS011;13044;49.304;12.840;2022-11-03T00:04:28;56.17;;;8.93;;
25045;SDS011;13044;49.304;12.840;2022-11-03T00:06:55;17.38;;;7.88;;
25045;SDS011;13044;49.304;12.840;2022-11-03T00:09:22;45.38;;;9.35;;
25045;SDS011;13044;49.304;12.840;2022-11-03T00:11:52;38.10;;;7.78;;
25045;SDS011;13044;49.304;12.840;2022-11-03T00:14:19;55.13;;;8.18;;
25045;SDS011;13044;49.304;12.840;2022-11-03T00:16:46;42.45;;;9.82;;
25045;SDS011;13044;49.304;12.840;2022-11-03T00:19:13;44.30;;;8.98;;
25045;SDS011;13044;49.304;12.840;2022-11-03T00:21:42;66.05;;;8.85;;
25045;SDS011;13044;49.304;12.840;2022-11-03T00:24:10;32.33;;;8.73;;
25045;SDS011;13044;49.304;12.840;2022-11-03T00:26:38;47.10;;;9.68;;
25045;SDS011;13044;49.304;12.840;2022-11-03T00:29:06;74.30;;;11.05;;
25045;SDS011;13044;49.304;12.840;2022-11-03T00:31:36;53.67;;;8.50;;
25045;SDS011;13044;49.304;12.840;2022-11-03T00:34:05;59.15;;;8.02;;
25045;SDS011;13044;49.304;12.840;2022-11-03T00:36:34;57.17;;;9.00;;
25045;SDS011;13044;49.304;12.840;2022-11-03T00:39:07;81.43;;;8.85;;
25045;SDS011;13044;49.304;12.840;2022-11-03T00:41:34;91.38;;;8.52;;
25045;SDS011;13044;49.304;12.840;2022-11-03T00:44:02;65.82;;;8.55;;
25045;SDS011;13044;49.304;12.840;2022-11-03T00:46:29;63.40;;;8.73;;
25045;SDS011;13044;49.304;12.840;2022-11-03T00:48:55;64.72;;;8.30;;
25045;SDS011;13044;49.304;12.840;2022-11-03T00:51:23;62.47;;;9.38;;
25045;SDS011;13044;49.304;12.840;2022-11-03T00:53:53;90.75;;;8.70;;
25045;SDS011;13044;49.304;12.840;2022-11-03T00:56:29;59.70;;;8.13;;
25045;SDS011;13044;49.304;12.840;2022-11-03T00:58:58;61.67;;;8.88;;
25045;SDS011;13044;49.304;12.840;2022-11-03T01:01:27;45.88;;;8.30;;
25045;SDS011;13044;49.304;12.840;2022-11-03T01:04:12;57.35;;;8.50;;
25045;SDS011;13044;49.304;12.840;2022-11-03T01:06:58;41.15;;;8.52;;
25045;SDS011;13044;49.304;12.840;2022-11-03T01:09:29;54.67;;;8.65;;
25045;SDS011;13044;49.304;12.840;2022-11-03T01:12:10;84.07;;;9.00;;
25045;SDS011;13044;49.304;12.840;2022-11-03T01:14:45;89.85;;;10.05;;
25045;SDS011;13044;49.304;12.840;2022-11-03T01:17:16;40.22;;;7.75;;
25045;SDS011;13044;49.304;12.840;2022-11-03T01:19:51;53.53;;;9.18;;
25045;SDS011;13044;49.304;12.840;2022-11-03T01:22:19;65.78;;;9.90;;
25045;SDS011;13044;49.304;12.840;2022-11-03T01:24:48;61.45;;;9.90;;
25045;SDS011;13044;49.304;12.840;2022-11-03T01:27:17;46.15;;;8.00;;
25045;SDS011;13044;49.304;12.840;2022-11-03T01:29:47;53.67;;;8.27;;
25045;SDS011;13044;49.304;12.840;2022-11-03T01:32:14;69.70;;;7.70;;
25045;SDS011;13044;49.304;12.840;2022-11-03T01:34:41;59.50;;;8.75;;
25045;SDS011;13044;49.304;12.840;2022-11-03T01:37:07;46.30;;;8.10;;
25045;SDS011;13044;49.304;12.840;2022-11-03T01:39:34;35.33;;;7.22;;
25045;SDS011;13044;49.304;12.840;2022-11-03T01:42:01;52.97;;;8.80;;
25045;SDS011;13044;49.304;12.840;2022-11-03T01:44:29;49.03;;;8.40;;
25045;SDS011;13044;49.304;12.840;2022-11-03T01:49:52;49.25;;;7.80;;
25045;SDS011;13044;49.304;12.840;2022-11-03T01:52:35;37.67;;;6.88;;
25045;SDS011;13044;49.304;12.840;2022-11-03T01:55:15;61.08;;;8.73;;
25045;SDS011;13044;49.304;12.840;2022-11-03T01:57:49;40.72;;;7.85;;
25045;SDS011;13044;49.304;12.840;2022-11-03T02:00:22;25.63;;;6.65;;
25045;SDS011;13044;49.304;12.840;2022-11-03T02:02:48;37.50;;;7.32;;
25045;SDS011;13044;49.304;12.840;2022-11-03T02:05:16;23.85;;;7.22;;
25045;SDS011;13044;49.304;12.840;2022-11-03T02:07:47;18.15;;;6.82;;
25045;SDS011;13044;49.304;12.840;2022-11-03T02:10:23;24.05;;;7.68;;
25045;SDS011;13044;49.304;12.840;2022-11-03T02:12:50;21.60;;;6.80;;
25045;SDS011;13044;49.304;12.840;2022-11-03T02:15:18;33.40;;;6.63;;
25045;SDS011;13044;49.304;12.840;2022-11-03T02:17:46;20.27;;;6.05;;
25045;SDS011;13044;49.304;12.840;2022-11-03T02:20:21;15.85;;;6.18;;
25045;SDS011;13044;49.304;12.840;2022-11-03T02:23:15;14.32;;;6.55;;
25045;SDS011;13044;49.304;12.840;2022-11-03T02:26:04;32.70;;;6.43;;
25045;SDS011;13044;49.304;12.840;2022-11-03T02:28:33;20.48;;;5.95;;
25045;SDS011;13044;49.304;12.840;2022-11-03T02:34:26;15.18;;;5.25;;
25045;SDS011;13044;49.304;12.840;2022-11-03T02:36:52;9.52;;;5.20;;
25045;SDS011;13044;49.304;12.840;2022-11-03T02:39:31;21.08;;;4.95;;
25045;SDS011;13044;49.304;12.840;2022-11-03T02:42:03;15.88;;;4.55;;
25045;SDS011;13044;49.304;12.840;2022-11-03T02:44:32;35.20;;;4.78;;
25045;SDS011;13044;49.304;12.840;2022-11-03T02:47:01;16.45;;;4.32;;
25045;SDS011;13044;49.304;12.840;2022-11-03T02:55:11;25.77;;;5.13;;
25045;SDS011;13044;49.304;12.840;2022-11-03T02:58:12;20.00;;;4.93;;
25045;SDS011;13044;49.304;12.840;2022-11-03T03:03:54;34.72;;;5.20;;
25045;SDS011;13044;49.304;12.840;2022-11-03T03:06:31;21.05;;;4.65;;
25045;SDS011;13044;49.304;12.840;2022-11-03T03:09:16;31.02;;;4.70;;
25045;SDS011;13044;49.304;12.840;2022-11-03T03:11:48;32.85;;;5.20;;
25045;SDS011;13044;49.304;12.840;2022-11-03T03:14:37;15.60;;;4.80;;
25045;SDS011;13044;49.304;12.840;2022-11-03T03:17:13;34.58;;;5.38;;
25045;SDS011;13044;49.304;12.840;2022-11-03T03:22:55;10.68;;;4.32;;
25045;SDS011;13044;49.304;12.840;2022-11-03T03:25:35;18.52;;;3.97;;
25045;SDS011;13044;49.304;12.840;2022-11-03T03:28:11;12.02;;;4.22;;
25045;SDS011;13044;49.304;12.840;2022-11-03T03:30:43;10.32;;;3.88;;
25045;SDS011;13044;49.304;12.840;2022-11-03T03:33:12;7.00;;;4.07;;
25045;SDS011;13044;49.304;12.840;2022-11-03T03:35:41;5.70;;;3.78;;
25045;SDS011;13044;49.304;12.840;2022-11-03T03:38:15;5.05;;;3.67;;
25045;SDS011;13044;49.304;12.840;2022-11-03T03:40:53;7.05;;;3.70;;
25045;SDS011;13044;49.304;12.840;2022-11-03T03:43:22;8.40;;;3.75;;
25045;SDS011;13044;49.304;12.840;2022-11-03T03:45:53;7.78;;;3.25;;
25045;SDS011;13044;49.304;12.840;2022-11-03T03:48:22;7.25;;;3.65;;
25045;SDS011;13044;49.304;12.840;2022-11-03T03:50:48;4.30;;;3.33;;
25045;SDS011;13044;49.304;12.840;2022-11-03T03:53:17;7.10;;;3.42;;
25045;SDS011;13044;49.304;12.840;2022-11-03T03:55:45;4.47;;;3.38;;
25045;SDS011;13044;49.304;12.840;2022-11-03T03:58:16;6.40;;;3.42;;
25045;SDS011;13044;49.304;12.840;2022-11-03T04:00:43;3.80;;;3.03;;
25045;SDS011;13044;49.304;12.840;2022-11-03T04:03:14;4.22;;;3.30;;
25045;SDS011;13044;49.304;12.840;2022-11-03T04:05:47;7.72;;;3.70;;
25045;SDS011;13044;49.304;12.840;2022-11-03T04:08:15;9.88;;;3.80;;
25045;SDS011;13044;49.304;12.840;2022-11-03T04:10:43;7.65;;;4.40;;
25045;SDS011;13044;49.304;12.840;2022-11-03T04:13:29;5.65;;;3.95;;
25045;SDS011;13044;49.304;12.840;2022-11-03T04:16:15;7.00;;;4.10;;
25045;SDS011;13044;49.304;12.840;2022-11-03T04:19:01;6.22;;;3.95;;
25045;SDS011;13044;49.304;12.840;2022-11-03T04:21:46;6.25;;;3.95;;
25045;SDS011;13044;49.304;12.840;2022-11-03T04:24:31;5.78;;;4.10;;
25045;SDS011;13044;49.304;12.840;2022-11-03T04:27:04;7.40;;;4.40;;
25045;SDS011;13044;49.304;12.840;2022-11-03T04:32:35;6.47;;;4.22;;
25045;SDS011;13044;49.304;12.840;2022-11-03T04:37:50;9.63;;;4.80;;
25045;SDS011;13044;49.304;12.840;2022-11-03T04:40:24;11.82;;;4.78;;
25045;SDS011;13044;49.304;12.840;2022-11-03T04:42:51;7.78;;;4.32;;
25045;SDS011;13044;49.304;12.840;2022-11-03T04:45:22;8.10;;;3.85;;
25045;SDS011;13044;49.304;12.840;2022-11-03T04:47:58;7.05;;;4.35;;
25045;SDS011;13044;49.304;12.840;2022-11-03T04:50:27;6.88;;;4.00;;
25045;SDS011;13044;49.304;12.840;2022-11-03T04:52:54;11.27;;;4.20;;
25045;SDS011;13044;49.304;12.840;2022-11-03T04:55:23;9.45;;;4.65;;
25045;SDS011;13044;49.304;12.840;2022-11-03T04:57:54;5.72;;;4.13;;
25045;SDS011;13044;49.304;12.840;2022-11-03T05:00:23;4.77;;;3.20;;
25045;SDS011;13044;49.304;12.840;2022-11-03T05:02:50;7.38;;;4.68;;
25045;SDS011;13044;49.304;12.840;2022-11-03T05:05:22;8.35;;;4.82;;
25045;SDS011;13044;49.304;12.840;2022-11-03T05:07:52;13.98;;;5.13;;
25045;SDS011;13044;49.304;12.840;2022-11-03T05:10:26;10.32;;;5.53;;
25045;SDS011;13044;49.304;12.840;2022-11-03T05:12:54;12.45;;;6.03;;
25045;SDS011;13044;49.304;12.840;2022-11-03T05:18:19;12.88;;;5.57;;
25045;SDS011;13044;49.304;12.840;2022-11-03T05:20:57;12.13;;;4.88;;
25045;SDS011;13044;49.304;12.840;2022-11-03T05:23:29;5.23;;;3.47;;
25045;SDS011;13044;49.304;12.840;2022-11-03T05:26:14;6.38;;;4.55;;
25045;SDS011;13044;49.304;12.840;2022-11-03T05:31:55;6.68;;;4.68;;
25045;SDS011;13044;49.304;12.840;2022-11-03T05:34:41;8.73;;;4.88;;
25045;SDS011;13044;49.304;12.840;2022-11-03T05:40:00;8.35;;;5.00;;
25045;SDS011;13044;49.304;12.840;2022-11-03T05:42:47;13.18;;;5.38;;
25045;SDS011;13044;49.304;12.840;2022-11-03T05:45:23;12.00;;;5.45;;
25045;SDS011;13044;49.304;12.840;2022-11-03T05:48:23;23.45;;;5.60;;
25045;SDS011;13044;49.304;12.840;2022-11-03T05:50:57;13.23;;;5.15;;
25045;SDS011;13044;49.304;12.840;2022-11-03T05:53:27;9.57;;;5.10;;
25045;SDS011;13044;49.304;12.840;2022-11-03T05:55:59;17.73;;;5.90;;
25045;SDS011;13044;49.304;12.840;2022-11-03T05:58:36;19.63;;;5.65;;
25045;SDS011;13044;49.304;12.840;2022-11-03T06:01:12;15.90;;;5.55;;
25045;SDS011;13044;49.304;12.840;2022-11-03T06:03:51;14.75;;;6.10;;
25045;SDS011;13044;49.304;12.840;2022-11-03T06:06:25;12.07;;;5.72;;
25045;SDS011;13044;49.304;12.840;2022-11-03T06:09:04;18.50;;;5.97;;
25045;SDS011;13044;49.304;12.840;2022-11-03T06:11:41;7.40;;;4.43;;
25045;SDS011;13044;49.304;12.840;2022-11-03T06:19:49;10.82;;;6.22;;
25045;SDS011;13044;49.304;12.840;2022-11-03T06:22:30;14.15;;;6.38;;
25045;SDS011;13044;49.304;12.840;2022-11-03T06:25:12;11.57;;;6.63;;
25045;SDS011;13044;49.304;12.840;2022-11-03T06:28:03;14.85;;;6.65;;
25045;SDS011;13044;49.304;12.840;2022-11-03T06:30:32;9.48;;;5.55;;
25045;SDS011;13044;49.304;12.840;2022-11-03T06:36:15;11.50;;;5.95;;
25045;SDS011;13044;49.304;12.840;2022-11-03T06:38:53;12.40;;;5.97;;
25045;SDS011;13044;49.304;12.840;2022-11-03T06:41:24;13.27;;;6.28;;
25045;SDS011;13044;49.304;12.840;2022-11-03T06:43:54;10.73;;;4.63;;
25045;SDS011;13044;49.304;12.840;2022-11-03T06:46:24;10.45;;;6.00;;
25045;SDS011;13044;49.304;12.840;2022-11-03T06:48:52;11.25;;;6.18;;
25045;SDS011;13044;49.304;12.840;2022-11-03T06:51:26;16.70;;;6.05;;
25045;SDS011;13044;49.304;12.840;2022-11-03T06:53:56;12.60;;;6.32;;
25045;SDS011;13044;49.304;12.840;2022-11-03T06:56:26;13.52;;;5.68;;
25045;SDS011;13044;49.304;12.840;2022-11-03T06:58:56;14.93;;;5.63;;
25045;SDS011;13044;49.304;12.840;2022-11-03T07:01:24;9.85;;;6.25;;
25045;SDS011;13044;49.304;12.840;2022-11-03T07:03:59;8.98;;;5.55;;
25045;SDS011;13044;49.304;12.840;2022-11-03T07:06:38;10.23;;;5.47;;
25045;SDS011;13044;49.304;12.840;2022-11-03T07:09:06;7.97;;;4.88;;
25045;SDS011;13044;49.304;12.840;2022-11-03T07:11:44;10.93;;;6.05;;
25045;SDS011;13044;49.304;12.840;2022-11-03T07:14:15;10.48;;;5.55;;
25045;SDS011;13044;49.304;12.840;2022-11-03T07:16:51;16.20;;;5.25;;
25045;SDS011;13044;49.304;12.840;2022-11-03T07:22:23;7.88;;;5.57;;
25045;SDS011;13044;49.304;12.840;2022-11-03T07:24:55;14.13;;;6.45;;
25045;SDS011;13044;49.304;12.840;2022-11-03T07:27:30;9.38;;;5.35;;
25045;SDS011;13044;49.304;12.840;2022-11-03T07:32:48;10.15;;;5.22;;
25045;SDS011;13044;49.304;12.840;2022-11-03T07:38:18;8.25;;;5.03;;
25045;SDS011;13044;49.304;12.840;2022-11-03T07:40:48;12.48;;;5.40;;
25045;SDS011;13044;49.304;12.840;2022-11-03T07:43:32;8.75;;;4.60;;
25045;SDS011;13044;49.304;12.840;2022-11-03T07:46:01;7.50;;;4.53;;
25045;SDS011;13044;49.304;12.840;2022-11-03T07:48:44;9.65;;;5.78;;
25045;SDS011;13044;49.304;12.840;2022-11-03T07:51:19;10.38;;;4.97;;
25045;SDS011;13044;49.304;12.840;2022-11-03T07:53:54;8.05;;;4.70;;
25045;SDS011;13044;49.304;12.840;2022-11-03T07:59:12;6.28;;;4.28;;
25045;SDS011;13044;49.304;12.840;2022-11-03T08:01:46;6.50;;;4.03;;
25045;SDS011;13044;49.304;12.840;2022-11-03T08:04:17;3.20;;;2.88;;
25045;SDS011;13044;49.304;12.840;2022-11-03T08:06:48;6.00;;;4.50;;
25045;SDS011;13044;49.304;12.840;2022-11-03T08:09:16;5.95;;;4.20;;
25045;SDS011;13044;49.304;12.840;2022-11-03T08:11:44;4.55;;;3.65;;
25045;SDS011;13044;49.304;12.840;2022-11-03T08:14:11;5.72;;;3.88;;
25045;SDS011;13044;49.304;12.840;2022-11-03T08:16:39;4.90;;;3.80;;
25045;SDS011;13044;49.304;12.840;2022-11-03T08:19:06;6.43;;;3.92;;
25045;SDS011;13044;49.304;12.840;2022-11-03T08:21:33;7.80;;;4.45;;
25045;SDS011;13044;49.304;12.840;2022-11-03T08:24:00;7.32;;;4.60;;
25045;SDS011;13044;49.304;12.840;2022-11-03T08:26:27;9.68;;;5.22;;
25045;SDS011;13044;49.304;12.840;2022-11-03T08:28:54;8.20;;;5.25;;
25045;SDS011;13044;49.304;12.840;2022-11-03T08:31:21;8.48;;;5.07;;
25045;SDS011;13044;49.304;12.840;2022-11-03T08:33:48;8.60;;;5.53;;
25045;SDS011;13044;49.304;12.840;2022-11-03T08:36:14;7.82;;;5.50;;
25045;SDS011;13044;49.304;12.840;2022-11-03T08:38:42;9.18;;;5.30;;
25045;SDS011;13044;49.304;12.840;2022-11-03T08:41:09;9.68;;;5.43;;
25045;SDS011;13044;49.304;12.840;2022-11-03T08:43:35;8.05;;;5.00;;
25045;SDS011;13044;49.304;12.840;2022-11-03T08:46:02;8.63;;;5.32;;
25045;SDS011;13044;49.304;12.840;2022-11-03T08:48:42;7.75;;;5.18;;
25045;SDS011;13044;49.304;12.840;2022-11-03T08:51:09;8.10;;;5.20;;
25045;SDS011;13044;49.304;12.840;2022-11-03T08:53:39;8.00;;;5.28;;
25045;SDS011;13044;49.304;12.840;2022-11-03T08:56:08;8.00;;;5.65;;
25045;SDS011;13044;49.304;12.840;2022-11-03T08:58:40;9.05;;;5.85;;
25045;SDS011;13044;49.304;12.840;2022-11-03T09:03:43;12.73;;;5.65;;
25045;SDS011;13044;49.304;12.840;2022-11-03T09:06:10;9.75;;;6.13;;
25045;SDS011;13044;49.304;12.840;2022-11-03T09:08:37;10.32;;;6.82;;
25045;SDS011;13044;49.304;12.840;2022-11-03T09:11:24;9.15;;;5.97;;
25045;SDS011;13044;49.304;12.840;2022-11-03T09:13:50;9.98;;;5.90;;
25045;SDS011;13044;49.304;12.840;2022-11-03T09:16:17;8.35;;;5.68;;
25045;SDS011;13044;49.304;12.840;2022-11-03T09:18:44;12.85;;;6.03;;
25045;SDS011;13044;49.304;12.840;2022-11-03T09:21:11;8.95;;;5.50;;
25045;SDS011;13044;49.304;12.840;2022-11-03T09:23:39;8.20;;;5.75;;
25045;SDS011;13044;49.304;12.840;2022-11-03T09:26:06;10.65;;;6.57;;
25045;SDS011;13044;49.304;12.840;2022-11-03T09:28:33;7.68;;;5.32;;
25045;SDS011;13044;49.304;12.840;2022-11-03T09:31:00;10.30;;;5.00;;
25045;SDS011;13044;49.304;12.840;2022-11-03T09:33:27;9.75;;;5.47;;
25045;SDS011;13044;49.304;12.840;2022-11-03T09:35:53;8.63;;;5.10;;
25045;SDS011;13044;49.304;12.840;2022-11-03T09:38:20;8.30;;;5.32;;
25045;SDS011;13044;49.304;12.840;2022-11-03T09:40:47;8.32;;;5.03;;
25045;SDS011;13044;49.304;12.840;2022-11-03T09:43:14;7.95;;;4.80;;
25045;SDS011;13044;49.304;12.840;2022-11-03T09:45:41;9.93;;;5.35;;
25045;SDS011;13044;49.304;12.840;2022-11-03T09:48:08;8.05;;;4.88;;
25045;SDS011;13044;49.304;12.840;2022-11-03T09:50:37;6.18;;;5.07;;
25045;SDS011;13044;49.304;12.840;2022-11-03T09:53:04;8.57;;;5.20;;
25045;SDS011;13044;49.304;12.840;2022-11-03T09:55:35;8.82;;;5.07;;
25045;SDS011;13044;49.304;12.840;2022-11-03T09:58:08;9.05;;;4.80;;
25045;SDS011;13044;49.304;12.840;2022-11-03T10:00:39;7.32;;;5.00;;
25045;SDS011;13044;49.304;12.840;2022-11-03T10:03:13;9.90;;;4.47;;
25045;SDS011;13044;49.304;12.840;2022-11-03T10:05:43;7.00;;;4.40;;
25045;SDS011;13044;49.304;12.840;2022-11-03T10:08:21;8.30;;;5.03;;
25045;SDS011;13044;49.304;12.840;2022-11-03T10:10:52;10.25;;;4.72;;
25045;SDS011;13044;49.304;12.840;2022-11-03T10:15:56;7.90;;;4.25;;
25045;SDS011;13044;49.304;12.840;2022-11-03T10:18:26;8.60;;;4.75;;
25045;SDS011;13044;49.304;12.840;2022-11-03T10:20:54;10.82;;;5.10;;
25045;SDS011;13044;49.304;12.840;2022-11-03T10:23:23;8.55;;;4.95;;
25045;SDS011;13044;49.304;12.840;2022-11-03T10:25:50;8.35;;;4.47;;
25045;SDS011;13044;49.304;12.840;2022-11-03T10:28:24;10.23;;;5.07;;
25045;SDS011;13044;49.304;12.840;2022-11-03T10:31:01;14.73;;;5.38;;
25045;SDS011;13044;49.304;12.840;2022-11-03T10:33:38;8.25;;;4.72;;
25045;SDS011;13044;49.304;12.840;2022-11-03T10:38:40;7.40;;;4.63;;
25045;SDS011;13044;49.304;12.840;2022-11-03T10:41:12;9.25;;;4.72;;
25045;SDS011;13044;49.304;12.840;2022-11-03T10:47:01;12.27;;;4.57;;
25045;SDS011;13044;49.304;12.840;2022-11-03T10:49:31;7.90;;;4.95;;
25045;SDS011;13044;49.304;12.840;2022-11-03T10:52:22;7.10;;;4.60;;
25045;SDS011;13044;49.304;12.840;2022-11-03T10:54:51;9.90;;;4.85;;
25045;SDS011;13044;49.304;12.840;2022-11-03T10:57:21;9.82;;;4.72;;
25045;SDS011;13044;49.304;12.840;2022-11-03T10:59:50;6.80;;;4.45;;
25045;SDS011;13044;49.304;12.840;2022-11-03T11:02:19;7.18;;;4.05;;
25045;SDS011;13044;49.304;12.840;2022-11-03T11:04:57;14.88;;;4.68;;
25045;SDS011;13044;49.304;12.840;2022-11-03T11:07:39;11.18;;;4.55;;
25045;SDS011;13044;49.304;12.840;2022-11-03T11:10:21;9.75;;;4.45;;
25045;SDS011;13044;49.304;12.840;2022-11-03T11:13:02;6.38;;;4.25;;
25045;SDS011;13044;49.304;12.840;2022-11-03T11:15:45;11.35;;;4.55;;
25045;SDS011;13044;49.304;12.840;2022-11-03T11:20:56;7.72;;;4.53;;
25045;SDS011;13044;49.304;12.840;2022-11-03T11:31:42;9.37;;;4.10;;
25045;SDS011;13044;49.304;12.840;2022-11-03T11:36:43;10.75;;;4.78;;
25045;SDS011;13044;49.304;12.840;2022-11-03T11:44:47;11.70;;;4.53;;
25045;SDS011;13044;49.304;12.840;2022-11-03T11:52:31;8.10;;;4.85;;
25045;SDS011;13044;49.304;12.840;2022-11-03T11:57:50;8.70;;;4.53;;
25045;SDS011;13044;49.304;12.840;2022-11-03T12:00:24;11.85;;;4.88;;
25045;SDS011;13044;49.304;12.840;2022-11-03T12:02:55;9.60;;;5.35;;
25045;SDS011;13044;49.304;12.840;2022-11-03T12:05:24;10.35;;;5.03;;
25045;SDS011;13044;49.304;12.840;2022-11-03T12:07:54;8.52;;;5.03;;
25045;SDS011;13044;49.304;12.840;2022-11-03T12:10:30;9.60;;;5.15;;
25045;SDS011;13044;49.304;12.840;2022-11-03T12:12:58;11.70;;;4.95;;
25045;SDS011;13044;49.304;12.840;2022-11-03T12:18:32;7.43;;;4.85;;
25045;SDS011;13044;49.304;12.840;2022-11-03T12:21:10;8.98;;;4.70;;
25045;SDS011;13044;49.304;12.840;2022-11-03T12:26:17;12.52;;;5.22;;
25045;SDS011;13044;49.304;12.840;2022-11-03T12:29:06;10.95;;;4.90;;
25045;SDS011;13044;49.304;12.840;2022-11-03T12:31:33;11.02;;;5.88;;
25045;SDS011;13044;49.304;12.840;2022-11-03T12:34:02;7.68;;;4.97;;
25045;SDS011;13044;49.304;12.840;2022-11-03T12:36:29;8.30;;;5.25;;
25045;SDS011;13044;49.304;12.840;2022-11-03T12:38:56;9.13;;;5.80;;
25045;SDS011;13044;49.304;12.840;2022-11-03T12:41:22;12.68;;;5.85;;
25045;SDS011;13044;49.304;12.840;2022-11-03T12:43:50;11.32;;;5.10;;
25045;SDS011;13044;49.304;12.840;2022-11-03T12:46:19;9.70;;;5.60;;
25045;SDS011;13044;49.304;12.840;2022-11-03T12:48:47;11.88;;;6.05;;
25045;SDS011;13044;49.304;12.840;2022-11-03T12:51:18;9.77;;;5.78;;
25045;SDS011;13044;49.304;12.840;2022-11-03T12:53:48;9.93;;;6.28;;
25045;SDS011;13044;49.304;12.840;2022-11-03T12:56:16;10.32;;;5.63;;
25045;SDS011;13044;49.304;12.840;2022-11-03T12:58:43;9.77;;;5.65;;
25045;SDS011;13044;49.304;12.840;2022-11-03T13:01:10;10.85;;;6.57;;
25045;SDS011;13044;49.304;12.840;2022-11-03T13:03:38;11.75;;;6.30;;
25045;SDS011;13044;49.304;12.840;2022-11-03T13:06:05;13.07;;;6.22;;
25045;SDS011;13044;49.304;12.840;2022-11-03T13:08:35;14.77;;;6.40;;
25045;SDS011;13044;49.304;12.840;2022-11-03T13:11:03;12.65;;;5.95;;
25045;SDS011;13044;49.304;12.840;2022-11-03T13:13:50;11.30;;;5.95;;
25045;SDS011;13044;49.304;12.840;2022-11-03T13:16:18;8.55;;;5.70;;
25045;SDS011;13044;49.304;12.840;2022-11-03T13:18:45;16.52;;;6.95;;
25045;SDS011;13044;49.304;12.840;2022-11-03T13:21:13;14.25;;;5.90;;
25045;SDS011;13044;49.304;12.840;2022-11-03T13:23:39;17.20;;;6.65;;
25045;SDS011;13044;49.304;12.840;2022-11-03T13:26:06;17.65;;;6.78;;
25045;SDS011;13044;49.304;12.840;2022-11-03T13:28:33;12.60;;;6.28;;
25045;SDS011;13044;49.304;12.840;2022-11-03T13:31:00;14.20;;;6.10;;
25045;SDS011;13044;49.304;12.840;2022-11-03T13:33:27;11.18;;;7.10;;
25045;SDS011;13044;49.304;12.840;2022-11-03T13:35:54;10.10;;;6.32;;
25045;SDS011;13044;49.304;12.840;2022-11-03T13:38:22;13.60;;;6.88;;
25045;SDS011;13044;49.304;12.840;2022-11-03T13:40:49;12.07;;;6.93;;
25045;SDS011;13044;49.304;12.840;2022-11-03T13:43:23;13.85;;;7.03;;
25045;SDS011;13044;49.304;12.840;2022-11-03T13:45:50;11.48;;;6.68;;
25045;SDS011;13044;49.304;12.840;2022-11-03T13:48:17;13.05;;;6.53;;
25045;SDS011;13044;49.304;12.840;2022-11-03T13:51:04;12.25;;;7.40;;
25045;SDS011;13044;49.304;12.840;2022-11-03T13:53:31;19.45;;;8.43;;
25045;SDS011;13044;49.304;12.840;2022-11-03T13:56:18;15.32;;;7.43;;
25045;SDS011;13044;49.304;12.840;2022-11-03T13:58:47;13.98;;;7.47;;
25045;SDS011;13044;49.304;12.840;2022-11-03T14:01:35;12.20;;;7.50;;
25045;SDS011;13044;49.304;12.840;2022-11-03T14:04:03;32.30;;;17.60;;
25045;SDS011;13044;49.304;12.840;2022-11-03T14:06:50;14.52;;;8.52;;
25045;SDS011;13044;49.304;12.840;2022-11-03T14:09:17;13.38;;;8.20;;
25045;SDS011;13044;49.304;12.840;2022-11-03T14:11:43;20.38;;;8.60;;
25045;SDS011;13044;49.304;12.840;2022-11-03T14:14:29;11.05;;;7.35;;
25045;SDS011;13044;49.304;12.840;2022-11-03T14:16:55;18.33;;;9.80;;
25045;SDS011;13044;49.304;12.840;2022-11-03T14:19:22;17.15;;;8.30;;
25045;SDS011;13044;49.304;12.840;2022-11-03T14:22:00;18.88;;;8.88;;
25045;SDS011;13044;49.304;12.840;2022-11-03T14:24:27;15.55;;;9.07;;
25045;SDS011;13044;49.304;12.840;2022-11-03T14:26:54;15.88;;;9.85;;
25045;SDS011;13044;49.304;12.840;2022-11-03T14:29:21;18.42;;;10.05;;
25045;SDS011;13044;49.304;12.840;2022-11-03T14:31:48;13.93;;;7.82;;
25045;SDS011;13044;49.304;12.840;2022-11-03T14:34:14;11.15;;;8.27;;
25045;SDS011;13044;49.304;12.840;2022-11-03T14:36:41;14.48;;;8.10;;
25045;SDS011;13044;49.304;12.840;2022-11-03T14:39:08;12.10;;;7.63;;
25045;SDS011;13044;49.304;12.840;2022-11-03T14:41:35;14.82;;;7.60;;
25045;SDS011;13044;49.304;12.840;2022-11-03T14:44:20;14.23;;;7.88;;
25045;SDS011;13044;49.304;12.840;2022-11-03T14:46:47;13.20;;;7.90;;
25045;SDS011;13044;49.304;12.840;2022-11-03T14:49:14;16.27;;;8.50;;
25045;SDS011;13044;49.304;12.840;2022-11-03T14:51:41;15.05;;;8.57;;
25045;SDS011;13044;49.304;12.840;2022-11-03T14:54:08;17.15;;;9.15;;
25045;SDS011;13044;49.304;12.840;2022-11-03T14:56:35;17.17;;;8.95;;
25045;SDS011;13044;49.304;12.840;2022-11-03T14:59:01;14.70;;;8.68;;
25045;SDS011;13044;49.304;12.840;2022-11-03T15:01:28;16.48;;;8.82;;
25045;SDS011;13044;49.304;12.840;2022-11-03T15:03:56;28.38;;;16.58;;
25045;SDS011;13044;49.304;12.840;2022-11-03T15:06:23;42.25;;;25.70;;
25045;SDS011;13044;49.304;12.840;2022-11-03T15:08:50;47.03;;;27.30;;
25045;SDS011;13044;49.304;12.840;2022-11-03T15:11:21;39.85;;;21.77;;
25045;SDS011;13044;49.304;12.840;2022-11-03T15:13:48;51.35;;;29.73;;
25045;SDS011;13044;49.304;12.840;2022-11-03T15:16:17;71.43;;;42.42;;
25045;SDS011;13044;49.304;12.840;2022-11-03T15:18:45;60.33;;;36.45;;
25045;SDS011;13044;49.304;12.840;2022-11-03T15:21:12;42.53;;;26.40;;
25045;SDS011;13044;49.304;12.840;2022-11-03T15:23:39;43.03;;;23.92;;
25045;SDS011;13044;49.304;12.840;2022-11-03T15:26:26;43.83;;;21.63;;
25045;SDS011;13044;49.304;12.840;2022-11-03T15:28:53;32.63;;;16.20;;
25045;SDS011;13044;49.304;12.840;2022-11-03T15:31:19;30.17;;;17.20;;
25045;SDS011;13044;49.304;12.840;2022-11-03T15:33:48;31.75;;;16.00;;
25045;SDS011;13044;49.304;12.840;2022-11-03T15:36:15;34.88;;;16.20;;
25045;SDS011;13044;49.304;12.840;2022-11-03T15:38:42;30.38;;;17.05;;
25045;SDS011;13044;49.304;12.840;2022-11-03T15:41:09;39.92;;;17.80;;
25045;SDS011;13044;49.304;12.840;2022-11-03T15:43:42;30.50;;;14.80;;
25045;SDS011;13044;49.304;12.840;2022-11-03T15:46:17;31.65;;;14.50;;
25045;SDS011;13044;49.304;12.840;2022-11-03T15:48:45;30.60;;;13.52;;
25045;SDS011;13044;49.304;12.840;2022-11-03T15:51:13;31.60;;;13.35;;
25045;SDS011;13044;49.304;12.840;2022-11-03T15:53:41;27.65;;;13.88;;
25045;SDS011;13044;49.304;12.840;2022-11-03T15:56:08;23.90;;;12.48;;
25045;SDS011;13044;49.304;12.840;2022-11-03T15:58:35;25.42;;;12.65;;
25045;SDS011;13044;49.304;12.840;2022-11-03T16:01:02;27.27;;;11.10;;
25045;SDS011;13044;49.304;12.840;2022-11-03T16:03:30;23.77;;;12.00;;
25045;SDS011;13044;49.304;12.840;2022-11-03T16:05:57;22.02;;;12.20;;
25045;SDS011;13044;49.304;12.840;2022-11-03T16:08:24;22.38;;;11.45;;
25045;SDS011;13044;49.304;12.840;2022-11-03T16:10:51;24.63;;;12.63;;
25045;SDS011;13044;49.304;12.840;2022-11-03T16:13:23;22.20;;;11.43;;
25045;SDS011;13044;49.304;12.840;2022-11-03T16:15:50;25.20;;;10.75;;
25045;SDS011;13044;49.304;12.840;2022-11-03T16:18:21;19.92;;;11.18;;
25045;SDS011;13044;49.304;12.840;2022-11-03T16:20:47;20.42;;;11.27;;
25045;SDS011;13044;49.304;12.840;2022-11-03T16:23:14;25.23;;;12.10;;
25045;SDS011;13044;49.304;12.840;2022-11-03T16:25:41;20.95;;;11.52;;
25045;SDS011;13044;49.304;12.840;2022-11-03T16:28:08;22.80;;;12.25;;